Terminal Aerodrome Forecast
Issued by NWS

Home | Current Version | Previous Version | Text Only | Print | Product List | Glossary On
Versions: 1 2 3 4 5 6 7 8 9 10 11 12 13 14 15 16 17 18
000
FTAK31 PAJN 061100
TAFAYA
TAF
PAYA 061120Z 0612/0712 VRB03KT 6SM BR SCT004 SCT060
     FM061600 VRB03KT P6SM BCFG SCT005
     FM061800 VRB04KT P6SM SKC
     FM062100 27007KT P6SM SKC
     FM070600 VRB03KT P6SM SCT005
     FM071000 00000KT 6SM BR BKN005
      AMD LTD TO CLD VIS AND WIND 0701/0710=

USA.gov is the U.S. government's official web portal to all federal, state and local government web resources and services.